createdAt,value
2018-11-27T00:01:31.003Z,94.70
2018-11-27T00:06:30.325Z,94.70
2018-11-27T00:09:00.317Z,94.70
2018-11-27T00:11:30.328Z,94.70
2018-11-27T00:16:28.324Z,94.30
2018-11-27T00:18:58.038Z,94.20
2018-11-27T00:23:57.785Z,94.20
2018-11-27T00:26:27.456Z,94.00
2018-11-27T00:28:57.208Z,94.00
2018-11-27T00:33:56.768Z,94.00
2018-11-27T00:36:26.666Z,94.00
2018-11-27T00:38:56.532Z,94.20
2018-11-27T00:43:55.975Z,94.30
2018-11-27T00:46:25.864Z,94.20
2018-11-27T00:51:32.880Z,94.20
2018-11-27T00:56:30.445Z,94.20
2018-11-27T00:59:00.163Z,94.30
2018-11-27T01:03:57.345Z,94.60
2018-11-27T01:06:27.158Z,94.60
2018-11-27T01:08:56.879Z,94.60
2018-11-27T01:11:26.908Z,94.60
2018-11-27T01:13:56.611Z,94.60
2018-11-27T01:16:26.289Z,94.50
2018-11-27T01:21:25.911Z,94.60
2018-11-27T01:23:55.585Z,94.70
2018-11-27T01:28:53.126Z,94.90
2018-11-27T01:31:22.826Z,94.50
2018-11-27T01:33:52.438Z,94.50
2018-11-27T01:38:53.095Z,94.50
2018-11-27T01:43:50.223Z,94.50
2018-11-27T01:46:19.758Z,94.10
2018-11-27T01:48:49.460Z,94.00
2018-11-27T01:51:19.532Z,94.10
2018-11-27T01:53:49.413Z,94.10
2018-11-27T01:58:47.051Z,94.00
2018-11-27T02:01:16.928Z,94.00
2018-11-27T02:03:46.684Z,94.10
2018-11-27T02:06:16.441Z,94.20
2018-11-27T02:11:16.820Z,94.40
2018-11-27T02:13:46.348Z,94.50
2018-11-27T02:16:15.926Z,94.60
2018-11-27T02:18:45.908Z,94.60
2018-11-27T02:21:15.602Z,94.60
2018-11-27T02:23:45.200Z,94.70
2018-11-27T02:26:15.164Z,94.60
2018-11-27T02:28:45.046Z,94.70
2018-11-27T02:31:14.845Z,94.70
2018-11-27T02:36:14.504Z,94.60
2018-11-27T02:38:44.194Z,94.40
2018-11-27T02:41:13.902Z,94.50
2018-11-27T02:43:44.220Z,95.00
2018-11-27T02:46:14.136Z,94.70
2018-11-27T02:48:43.760Z,94.50
2018-11-27T02:51:13.642Z,94.60
2018-11-27T02:53:43.182Z,94.60
2018-11-27T02:56:12.854Z,94.70
2018-11-27T02:58:42.483Z,94.70
2018-11-27T03:01:12.103Z,94.50
2018-11-27T03:03:41.892Z,94.80
2018-11-27T03:06:11.693Z,94.90
2018-11-27T03:08:41.338Z,94.90
2018-11-27T03:11:10.815Z,95.00
2018-11-27T03:13:40.695Z,95.00
2018-11-27T03:16:10.263Z,95.10
2018-11-27T03:18:40.178Z,95.20
2018-11-27T03:21:09.751Z,95.20
2018-11-27T03:23:39.185Z,95.20
2018-11-27T03:26:09.067Z,95.30
2018-11-27T03:28:38.695Z,95.20
2018-11-27T03:31:08.308Z,95.10
2018-11-27T03:33:38.000Z,95.20
2018-11-27T03:36:08.029Z,95.10
2018-11-27T03:38:37.620Z,95.10
2018-11-27T03:43:38.187Z,95.50
2018-11-27T03:48:35.336Z,95.00
2018-11-27T03:53:33.267Z,95.10
2018-11-27T03:58:30.298Z,95.00
2018-11-27T04:01:00.219Z,95.00
2018-11-27T04:03:29.820Z,95.10
2018-11-27T04:05:59.432Z,95.10
2018-11-27T04:08:29.076Z,95.20
2018-11-27T04:10:59.039Z,95.30
2018-11-27T04:13:29.154Z,95.30
2018-11-27T04:15:58.692Z,95.40
2018-11-27T04:18:28.319Z,95.40
2018-11-27T04:20:58.206Z,95.40
2018-11-27T04:23:27.835Z,95.40
2018-11-27T04:25:57.501Z,95.70
2018-11-27T04:28:27.231Z,95.40
2018-11-27T04:30:57.157Z,95.30
2018-11-27T04:33:26.775Z,95.30
2018-11-27T04:35:56.598Z,95.10
2018-11-27T04:40:56.010Z,94.90
2018-11-27T04:43:26.236Z,94.20
2018-11-27T04:45:55.935Z,93.90
2018-11-27T04:48:25.452Z,93.70
2018-11-27T04:50:55.155Z,93.90
2018-11-27T04:53:24.929Z,93.70
2018-11-27T04:58:25.586Z,93.80
2018-11-27T05:00:55.510Z,93.50
2018-11-27T05:03:25.272Z,93.50
2018-11-27T05:08:25.784Z,93.40
2018-11-27T05:10:56.475Z,93.20
2018-11-27T05:13:26.238Z,93.40
2018-11-27T05:18:26.258Z,93.40
2018-11-27T05:20:56.098Z,93.40
2018-11-27T05:23:25.794Z,93.50
2018-11-27T05:25:55.600Z,93.60
2018-11-27T05:28:25.411Z,93.50
2018-11-27T05:30:54.914Z,93.60
2018-11-27T05:33:24.831Z,93.70
2018-11-27T05:35:54.440Z,93.70
2018-11-27T05:38:24.055Z,93.80
2018-11-27T05:40:53.861Z,93.90
2018-11-27T05:43:23.426Z,93.90
2018-11-27T05:45:53.507Z,94.00
2018-11-27T05:48:23.255Z,94.00
2018-11-27T05:50:53.080Z,94.10
2018-11-27T05:53:22.821Z,94.20
2018-11-27T05:55:52.620Z,94.30
2018-11-27T05:58:22.344Z,94.40
2018-11-27T06:00:52.037Z,94.20
2018-11-27T06:05:50.698Z,94.10
2018-11-27T06:08:20.418Z,93.70
2018-11-27T06:10:50.171Z,93.70
2018-11-27T06:13:19.965Z,93.80
2018-11-27T06:15:49.356Z,93.80
2018-11-27T06:18:19.178Z,93.90
2018-11-27T06:20:48.784Z,94.00
2018-11-27T06:25:45.883Z,94.10
2018-11-27T06:28:15.470Z,94.10
2018-11-27T06:30:45.136Z,94.20
2018-11-27T06:33:15.027Z,94.30
2018-11-27T06:35:45.561Z,94.30
2018-11-27T06:40:46.102Z,94.30
2018-11-27T06:43:15.950Z,94.40
2018-11-27T06:45:45.603Z,94.40
2018-11-27T06:48:15.349Z,94.50
2018-11-27T06:50:45.089Z,94.50
2018-11-27T06:53:14.759Z,94.50
2018-11-27T06:55:44.250Z,94.50
2018-11-27T07:00:41.837Z,94.50
2018-11-27T07:03:12.659Z,94.30
2018-11-27T07:05:42.198Z,94.60
2018-11-27T07:08:12.064Z,94.60
2018-11-27T07:10:43.193Z,94.70
2018-11-27T07:13:24.493Z,94.60
2018-11-27T07:15:54.284Z,94.60
2018-11-27T07:18:23.574Z,94.60
2018-11-27T07:20:52.859Z,94.60
2018-11-27T07:23:22.166Z,94.60
2018-11-27T07:25:52.095Z,94.50
2018-11-27T07:28:21.459Z,94.60
2018-11-27T07:30:50.813Z,94.60
2018-11-27T07:33:20.175Z,94.60
2018-11-27T07:35:49.527Z,94.60
2018-11-27T07:38:18.999Z,94.60
2018-11-27T07:40:48.302Z,94.70
2018-11-27T07:43:17.655Z,94.70
2018-11-27T07:45:47.667Z,94.70
2018-11-27T07:48:17.099Z,94.80
2018-11-27T07:50:46.396Z,94.70
2018-11-27T07:53:15.727Z,94.80
2018-11-27T07:55:45.112Z,94.80
2018-11-27T07:58:14.425Z,94.70
2018-11-27T08:00:44.862Z,94.70
2018-11-27T08:03:13.147Z,94.70
2018-11-27T08:05:42.614Z,94.60
2018-11-27T08:08:13.986Z,94.60
2018-11-27T08:10:44.343Z,94.50
2018-11-27T08:13:13.681Z,94.50
2018-11-27T08:15:43.138Z,94.50
2018-11-27T08:18:12.771Z,94.30
2018-11-27T08:20:42.089Z,94.40
2018-11-27T08:23:12.163Z,94.30
2018-11-27T08:25:41.583Z,94.70
2018-11-27T08:28:10.957Z,94.40
2018-11-27T08:30:40.259Z,94.30
2018-11-27T08:33:09.561Z,94.20
2018-11-27T08:35:38.837Z,94.20
2018-11-27T08:38:08.133Z,94.00
2018-11-27T08:40:37.451Z,94.10
2018-11-27T08:43:07.662Z,94.10
2018-11-27T08:45:37.037Z,94.10
2018-11-27T08:48:07.056Z,93.90
2018-11-27T08:50:36.422Z,93.70
2018-11-27T08:53:07.021Z,93.70
2018-11-27T08:55:41.028Z,93.60
2018-11-27T08:58:27.298Z,93.40
2018-11-27T09:00:56.561Z,93.10
2018-11-27T09:03:25.951Z,92.90
2018-11-27T09:05:55.407Z,92.70
2018-11-27T09:08:24.677Z,92.40
2018-11-27T09:10:53.948Z,92.40
2018-11-27T09:13:23.343Z,92.40
2018-11-27T09:15:52.685Z,92.20
2018-11-27T09:18:24.452Z,92.00
2018-11-27T09:20:53.769Z,91.90
2018-11-27T09:23:23.640Z,91.70
2018-11-27T09:25:53.090Z,91.30
2018-11-27T09:28:22.526Z,91.10
2018-11-27T09:30:52.358Z,91.20
2018-11-27T09:33:21.675Z,91.20
2018-11-27T09:35:51.871Z,91.20
2018-11-27T09:38:21.452Z,90.90
2018-11-27T09:40:51.132Z,90.80
2018-11-27T09:43:21.357Z,90.90
2018-11-27T09:45:51.292Z,90.80
2018-11-27T09:48:21.059Z,90.70
2018-11-27T09:50:51.019Z,91.10
2018-11-27T09:53:20.847Z,90.60
2018-11-27T09:55:50.443Z,90.60
2018-11-27T09:58:20.350Z,90.60
2018-11-27T10:18:53.084Z,90.10
2018-11-27T10:21:22.861Z,89.30
2018-11-27T10:23:52.388Z,88.50
2018-11-27T10:26:22.177Z,88.30
2018-11-27T10:28:51.989Z,88.40
2018-11-27T10:31:21.633Z,89.00
2018-11-27T10:33:51.639Z,88.40
2018-11-27T10:36:21.420Z,88.40
2018-11-27T10:38:51.260Z,88.40
2018-11-27T10:41:20.871Z,88.40
2018-11-27T10:43:50.490Z,88.00
2018-11-27T10:46:20.164Z,88.40
2018-11-27T10:48:49.805Z,88.60
2018-11-27T10:51:19.510Z,88.40
2018-11-27T10:53:49.324Z,88.40
2018-11-27T10:56:18.809Z,88.70
2018-11-27T10:58:48.551Z,89.00
2018-11-27T11:01:23.294Z,89.30
2018-11-27T11:03:53.388Z,89.30
2018-11-27T11:06:23.193Z,89.50
2018-11-27T11:08:53.347Z,89.50
2018-11-27T11:11:23.033Z,89.60
2018-11-27T11:13:52.836Z,89.70
2018-11-27T11:16:22.655Z,89.80
2018-11-27T11:18:52.277Z,89.90
2018-11-27T11:21:21.972Z,89.70
2018-11-27T11:23:51.797Z,89.90
2018-11-27T11:26:21.580Z,89.70
2018-11-27T11:28:51.129Z,89.60
2018-11-27T11:31:20.829Z,89.60
2018-11-27T11:33:50.617Z,89.30
2018-11-27T11:36:20.545Z,89.20
2018-11-27T11:38:50.322Z,88.90
2018-11-27T11:41:20.360Z,88.70
2018-11-27T11:43:50.336Z,88.50
2018-11-27T11:46:20.101Z,88.20
2018-11-27T11:48:49.792Z,87.90
2018-11-27T11:51:19.513Z,87.90
2018-11-27T11:53:49.109Z,87.40
2018-11-27T11:56:18.619Z,87.20
2018-11-27T11:58:48.489Z,87.50
2018-11-27T12:01:18.989Z,87.50
2018-11-27T12:03:48.700Z,87.40
2018-11-27T12:06:18.300Z,87.20
2018-11-27T12:08:48.003Z,87.00
2018-11-27T12:11:23.941Z,87.00
2018-11-27T12:13:53.711Z,86.60
2018-11-27T12:16:23.319Z,86.40
2018-11-27T12:18:53.273Z,86.00
2018-11-27T12:21:22.924Z,86.00
2018-11-27T12:23:52.804Z,86.20
2018-11-27T12:26:22.327Z,86.30
2018-11-27T12:28:51.752Z,86.20
2018-11-27T12:31:21.777Z,86.30
2018-11-27T12:33:51.736Z,86.50
2018-11-27T12:36:21.508Z,86.20
2018-11-27T12:38:51.305Z,86.50
2018-11-27T12:41:20.978Z,86.50
2018-11-27T12:43:50.602Z,86.50
2018-11-27T12:46:20.430Z,86.90
2018-11-27T12:48:50.143Z,85.80
2018-11-27T12:51:19.809Z,85.40
2018-11-27T12:53:49.500Z,85.00
2018-11-27T12:56:19.040Z,85.00
2018-11-27T12:58:48.700Z,85.00
2018-11-27T13:01:18.483Z,85.00
2018-11-27T13:03:48.053Z,84.80
2018-11-27T13:06:18.001Z,84.70
2018-11-27T13:08:47.767Z,84.60
2018-11-27T13:11:17.517Z,84.40
2018-11-27T13:13:47.268Z,84.60
2018-11-27T13:16:16.844Z,84.20
2018-11-27T13:18:46.433Z,84.10
2018-11-27T13:21:16.181Z,83.90
2018-11-27T13:23:45.655Z,83.70
2018-11-27T13:26:15.565Z,86.30
2018-11-27T13:28:45.185Z,84.60
2018-11-27T13:31:15.155Z,84.60
2018-11-27T13:33:52.913Z,83.10
2018-11-27T13:36:22.716Z,82.60
2018-11-27T13:38:52.567Z,82.70
2018-11-27T13:41:22.461Z,83.50
2018-11-27T13:43:53.069Z,82.80
2018-11-27T13:46:22.373Z,82.60
2018-11-27T13:48:52.496Z,81.80
2018-11-27T13:51:22.328Z,81.30
2018-11-27T13:53:51.894Z,81.50
2018-11-27T13:56:21.637Z,81.10
2018-11-27T13:58:51.252Z,81.60
2018-11-27T14:01:20.832Z,82.70
2018-11-27T14:03:50.551Z,82.40
2018-11-27T14:06:20.194Z,81.90
2018-11-27T14:08:50.205Z,81.30
2018-11-27T14:11:20.538Z,80.70
2018-11-27T14:13:50.314Z,80.20
2018-11-27T14:16:20.345Z,78.10
2018-11-27T14:18:49.952Z,78.10
2018-11-27T14:21:19.713Z,77.00
2018-11-27T14:23:49.356Z,77.40
2018-11-27T14:26:25.741Z,76.90
2018-11-27T14:28:55.339Z,76.80
2018-11-27T14:31:24.960Z,76.60
2018-11-27T14:33:54.978Z,76.60
2018-11-27T14:36:24.879Z,76.90
2018-11-27T14:38:54.619Z,76.30
2018-11-27T14:41:24.456Z,76.20
2018-11-27T14:43:54.745Z,76.50
2018-11-27T14:46:24.731Z,76.10
2018-11-27T14:48:54.422Z,75.90
2018-11-27T14:51:24.436Z,75.70
2018-11-27T14:53:54.069Z,75.10
2018-11-27T14:56:23.780Z,75.70
2018-11-27T14:58:53.595Z,75.30
2018-11-27T15:01:23.507Z,75.40
2018-11-27T15:03:53.763Z,75.30
2018-11-27T15:06:23.494Z,76.10
2018-11-27T15:08:53.137Z,76.60
2018-11-27T15:11:22.965Z,77.20
2018-11-27T15:13:52.753Z,77.70
2018-11-27T15:16:22.609Z,78.40
2018-11-27T15:18:52.770Z,78.80
2018-11-27T15:21:22.333Z,79.00
2018-11-27T15:23:51.866Z,79.20
2018-11-27T15:26:21.420Z,79.60
2018-11-27T15:28:51.145Z,79.90
2018-11-27T15:33:51.960Z,80.10
2018-11-27T15:36:21.787Z,80.60
2018-11-27T15:38:51.460Z,80.80
2018-11-27T15:41:21.560Z,81.00
2018-11-27T15:43:51.036Z,81.20
2018-11-27T15:46:20.690Z,81.40
2018-11-27T15:48:50.344Z,81.40
2018-11-27T15:51:19.764Z,81.40
2018-11-27T15:53:49.469Z,81.30
2018-11-27T15:56:19.209Z,81.50
2018-11-27T15:58:48.899Z,81.80
2018-11-27T16:01:18.596Z,82.00
2018-11-27T16:03:48.416Z,82.20
2018-11-27T16:06:18.212Z,82.20
2018-11-27T16:08:48.026Z,82.40
2018-11-27T16:11:17.976Z,82.50
2018-11-27T16:16:14.803Z,82.60
2018-11-27T16:18:44.875Z,82.00
2018-11-27T16:21:14.343Z,82.30
2018-11-27T16:23:44.394Z,82.30
2018-11-27T16:26:14.231Z,82.40
2018-11-27T16:31:12.195Z,81.90
2018-11-27T16:33:41.961Z,81.00
2018-11-27T16:38:42.554Z,80.90
2018-11-27T16:41:12.364Z,79.90
2018-11-27T16:43:41.973Z,79.90
2018-11-27T16:46:11.662Z,79.10
2018-11-27T16:48:41.270Z,78.80
2018-11-27T16:51:10.800Z,78.60
2018-11-27T16:53:40.713Z,78.50
2018-11-27T16:56:10.548Z,78.10
2018-11-27T16:58:40.739Z,77.90
2018-11-27T17:01:10.890Z,77.60
2018-11-27T17:03:40.916Z,77.60
2018-11-27T17:06:10.559Z,77.50
2018-11-27T17:08:40.204Z,77.60
2018-11-27T17:11:10.007Z,77.50
2018-11-27T17:13:39.788Z,77.40
2018-11-27T17:16:09.599Z,77.80
2018-11-27T17:18:39.349Z,78.20
2018-11-27T17:21:09.048Z,78.50
2018-11-27T17:23:38.976Z,78.70
2018-11-27T17:26:08.667Z,78.30
2018-11-27T17:31:12.951Z,78.70
2018-11-27T17:33:51.338Z,79.20
2018-11-27T17:36:20.981Z,79.70
2018-11-27T17:38:51.159Z,79.80
2018-11-27T17:41:20.811Z,80.00
2018-11-27T17:43:50.490Z,79.40
2018-11-27T17:46:20.182Z,78.90
2018-11-27T17:48:49.907Z,78.80
2018-11-27T17:51:19.190Z,79.20
2018-11-27T17:56:18.377Z,79.40
2018-11-27T17:58:47.802Z,78.70
2018-11-27T18:01:17.414Z,79.10
2018-11-27T18:03:47.348Z,79.00
2018-11-27T18:06:17.053Z,78.60
2018-11-27T18:08:46.751Z,78.80
2018-11-27T18:11:16.474Z,78.90
2018-11-27T18:13:46.301Z,78.90
2018-11-27T18:16:16.082Z,79.10
2018-11-27T18:18:45.777Z,79.20
2018-11-27T18:21:16.322Z,79.20
2018-11-27T18:23:45.957Z,79.30
2018-11-27T18:26:16.023Z,79.30
2018-11-27T18:28:46.406Z,79.60
2018-11-27T18:31:16.440Z,80.20
2018-11-27T18:33:46.096Z,80.60
2018-11-27T18:36:16.018Z,80.80
2018-11-27T18:38:45.540Z,81.10
2018-11-27T18:41:15.257Z,81.10
2018-11-27T18:43:45.164Z,81.10
2018-11-27T18:46:15.089Z,81.40
2018-11-27T18:48:44.831Z,81.40
2018-11-27T18:51:14.988Z,81.00
2018-11-27T18:53:44.686Z,80.70
2018-11-27T18:56:14.305Z,80.70
2018-11-27T18:58:44.022Z,80.60
2018-11-27T19:01:13.477Z,80.50
2018-11-27T19:03:43.456Z,80.30
2018-11-27T19:06:13.269Z,80.20
2018-11-27T19:08:43.287Z,80.30
2018-11-27T19:11:12.999Z,80.30
2018-11-27T19:13:42.936Z,80.50
2018-11-27T19:16:12.420Z,80.40
2018-11-27T19:18:42.254Z,80.50
2018-11-27T19:21:11.737Z,80.90
2018-11-27T19:23:41.728Z,80.60
2018-11-27T19:26:11.811Z,80.40
2018-11-27T19:28:41.359Z,80.20
2018-11-27T19:33:40.000Z,79.80
2018-11-27T19:38:37.050Z,79.50
2018-11-27T19:41:06.712Z,80.20
2018-11-27T19:43:36.745Z,80.20
2018-11-27T19:46:06.580Z,80.10
2018-11-27T19:48:36.656Z,79.90
2018-11-27T19:51:06.918Z,80.20
2018-11-27T19:53:36.633Z,80.60
2018-11-27T19:56:06.950Z,81.20
2018-11-27T20:01:04.026Z,81.60
2018-11-27T20:03:33.751Z,82.20
2018-11-27T20:06:03.555Z,82.20
2018-11-27T20:08:33.276Z,82.60
2018-11-27T20:11:02.990Z,83.00
2018-11-27T20:13:32.794Z,83.20
2018-11-27T20:16:02.639Z,83.30
2018-11-27T20:18:32.550Z,83.20
2018-11-27T20:21:02.650Z,83.00
2018-11-27T20:23:32.164Z,82.70
2018-11-27T20:26:02.070Z,82.40
2018-11-27T20:31:01.289Z,81.50
2018-11-27T20:33:30.695Z,81.00
2018-11-27T20:36:00.013Z,79.90
2018-11-27T20:38:29.363Z,79.50
2018-11-27T20:40:58.772Z,79.90
2018-11-27T20:43:28.122Z,78.70
2018-11-27T20:48:25.282Z,78.50
2018-11-27T20:50:55.191Z,78.30
2018-11-27T20:55:52.634Z,78.50
2018-11-27T20:58:22.241Z,78.70
2018-11-27T21:00:52.791Z,79.00
2018-11-27T21:03:22.452Z,79.20
2018-11-27T21:05:52.112Z,79.10
2018-11-27T21:08:22.255Z,78.70
2018-11-27T21:13:21.784Z,78.70
2018-11-27T21:15:51.488Z,78.50
2018-11-27T21:18:20.852Z,78.70
2018-11-27T21:20:51.070Z,78.50
2018-11-27T21:23:20.983Z,78.10
2018-11-27T21:25:56.333Z,78.80
2018-11-27T21:28:20.677Z,77.90
2018-11-27T21:33:20.094Z,77.60
2018-11-27T21:35:49.992Z,77.20
2018-11-27T21:38:19.895Z,77.00
2018-11-27T21:43:16.914Z,76.80
2018-11-27T21:45:46.681Z,76.90
2018-11-27T21:50:46.449Z,77.20
2018-11-27T21:53:16.927Z,77.20
2018-11-27T21:58:16.349Z,77.30
2018-11-27T22:00:46.133Z,77.30
2018-11-27T22:03:15.616Z,77.00
2018-11-27T22:05:45.278Z,77.00
2018-11-27T22:08:14.961Z,76.80
2018-11-27T22:10:44.456Z,76.80
2018-11-27T22:15:42.462Z,76.70
2018-11-27T22:18:12.659Z,76.10
2018-11-27T22:20:42.426Z,76.20
2018-11-27T22:23:14.399Z,76.20
2018-11-27T22:25:44.248Z,77.00
2018-11-27T22:28:13.526Z,76.10
2018-11-27T22:33:14.111Z,76.20
2018-11-27T22:35:43.821Z,76.00
2018-11-27T22:38:13.387Z,76.20
2018-11-27T22:40:43.323Z,76.20
2018-11-27T22:43:13.552Z,76.30
2018-11-27T22:45:43.224Z,76.30
2018-11-27T22:48:13.015Z,76.40
2018-11-27T22:53:12.623Z,76.50
2018-11-27T22:55:42.211Z,76.70
2018-11-27T22:58:12.166Z,77.00
2018-11-27T23:00:47.081Z,77.00
2018-11-27T23:05:46.410Z,77.20
2018-11-27T23:08:15.959Z,76.70
2018-11-27T23:13:13.072Z,77.00
2018-11-27T23:15:42.592Z,76.80
2018-11-27T23:18:12.286Z,77.10
2018-11-27T23:23:09.252Z,77.10
2018-11-27T23:25:38.947Z,77.30
2018-11-27T23:28:08.860Z,77.40
2018-11-27T23:30:38.689Z,77.30
2018-11-27T23:33:08.484Z,77.00
2018-11-27T23:35:38.126Z,77.00
2018-11-27T23:38:08.313Z,76.20
2018-11-27T23:43:05.213Z,76.80
2018-11-27T23:45:35.110Z,76.10
2018-11-27T23:48:05.226Z,76.00
2018-11-27T23:50:35.305Z,76.10
2018-11-27T23:53:05.046Z,76.20
2018-11-27T23:58:02.137Z,76.40
